Impacts TAF Board
For situational awareness. Not to be used for flight planning purposes.
IDs:

KPBI - Palm Beach Intl, FL, US

Issued at 0529 UTC 03 Aug 2021
Updated at 0752 UTC 03 Aug 2021
Potential Impact None Slight Moderate High
Time0653Z 03/08Z 03/09Z 03/10Z 03/11Z 03/12Z 03/13Z 03/14Z 03/15Z 03/16Z 03/17Z 03/18Z 03/19Z 03/20Z>>
Type OBS PRVL PRVL PRVL PRVL PRVL PRVL PRVL PRVL
  [PRB30]  
PRVL
  [PRB30]  
PRVL
  [PRB30]  
PRVL PRVL PRVL
VIS 10 >6 >6 >6 >6 >6 >6 >6 >6
  [3]  
>6
  [3]  
>6
  [3]  
>6 >6 >6
CIG 200 120 120 120 120 50 50 50 50
  [50]  
50
  [50]  
50
  [50]  
50 50 50
Cover BKN BKN BKN BKN BKN BKN BKN BKN BKN
  [BKN]  
BKN
  [BKN]  
BKN
  [BKN]  
BKN BKN BKN
FltCat VFR VFR VFR VFR VFR VFR VFR VFR VFR
  [MVFR]  
VFR
  [MVFR]  
VFR
  [MVFR]  
VFR VFR VFR
WX -- VCSH VCSH VCSH VCSH VCSH VCSH VCSH VCSH
  [TSRA]  
VCSH
  [TSRA]  
VCSH
  [TSRA]  
VCTS VCTS VCTS
WDir 210 210 210 210 210 220 220 220 220
[220]
220
[220]
220
[220]
170 170 170
WSpd 3 3 3 3 3 5 5 5 5
  [5]  
5
  [5]  
5
  [5]  
10 10 10
WGst -- -- -- -- -- -- -- -- --
  [--]  
--
  [--]  
--
  [--]  
-- -- --
Raw TAF
KPBI 030529Z 0306/0406 21003KT P6SM VCSH FEW025 SCT050 BKN120
  FM031200 22005KT P6SM VCSH SCT025 BKN050
  PROB30 0315/0318 3SM TSRA SCT025CB BKN050
  FM031800 17010KT P6SM VCTS SCT025CB BKN050
  FM040000 VRB05KT P6SM VCSH FEW025 SCT080 BKN120


Raw METAR
KPBI 030653Z 21003KT 10SM BKN200 26/25 A3000 RMK AO2 SLP157 T02610250 $
KPBI 030553Z 20003KT 10SM FEW120 SCT200 27/26 A3001 RMK AO2 SLP163 60003 T02720256 10283 20272 58021 $
KPBI 030453Z 21005KT 10SM FEW120 BKN180 27/27 A3004 RMK AO2 SLP172 T02720267 403390233 $

METAR Board
Radar Display
Forecast Discussion
For situational awareness. Not to be used for flight planning purposes.